sensor_id;sensor_type;location;lat;lon;timestamp;P1;durP1;ratioP1;P2;durP2;ratioP2
11034;SDS011;5571;48.110;-1.706;2023-07-08T00:00:41;6.25;;;4.13;;
11034;SDS011;5571;48.110;-1.706;2023-07-08T00:03:07;7.18;;;4.35;;
11034;SDS011;5571;48.110;-1.706;2023-07-08T00:05:33;8.48;;;4.28;;
11034;SDS011;5571;48.110;-1.706;2023-07-08T00:08:00;6.95;;;4.10;;
11034;SDS011;5571;48.110;-1.706;2023-07-08T00:10:26;9.95;;;4.38;;
11034;SDS011;5571;48.110;-1.706;2023-07-08T00:12:54;6.50;;;3.92;;
11034;SDS011;5571;48.110;-1.706;2023-07-08T00:15:24;4.55;;;3.90;;
11034;SDS011;5571;48.110;-1.706;2023-07-08T00:17:51;8.35;;;4.20;;
11034;SDS011;5571;48.110;-1.706;2023-07-08T00:20:26;8.20;;;3.70;;
11034;SDS011;5571;48.110;-1.706;2023-07-08T00:23:03;8.52;;;3.78;;
11034;SDS011;5571;48.110;-1.706;2023-07-08T00:25:30;5.40;;;3.92;;
11034;SDS011;5571;48.110;-1.706;2023-07-08T00:27:57;10.40;;;4.05;;
11034;SDS011;5571;48.110;-1.706;2023-07-08T00:30:24;5.43;;;4.10;;
11034;SDS011;5571;48.110;-1.706;2023-07-08T00:32:54;7.72;;;4.00;;
11034;SDS011;5571;48.110;-1.706;2023-07-08T00:35:21;8.25;;;4.20;;
11034;SDS011;5571;48.110;-1.706;2023-07-08T00:37:49;7.82;;;3.65;;
11034;SDS011;5571;48.110;-1.706;2023-07-08T00:40:18;7.40;;;4.05;;
11034;SDS011;5571;48.110;-1.706;2023-07-08T00:42:48;7.45;;;4.43;;
11034;SDS011;5571;48.110;-1.706;2023-07-08T00:45:35;6.43;;;4.20;;
11034;SDS011;5571;48.110;-1.706;2023-07-08T00:50:50;7.95;;;3.60;;
11034;SDS011;5571;48.110;-1.706;2023-07-08T00:55:49;8.18;;;3.92;;
11034;SDS011;5571;48.110;-1.706;2023-07-08T00:58:17;9.85;;;4.45;;
11034;SDS011;5571;48.110;-1.706;2023-07-08T01:00:45;7.47;;;4.13;;
11034;SDS011;5571;48.110;-1.706;2023-07-08T01:03:11;7.07;;;4.20;;
11034;SDS011;5571;48.110;-1.706;2023-07-08T01:05:37;7.05;;;4.18;;
11034;SDS011;5571;48.110;-1.706;2023-07-08T01:08:03;7.35;;;3.97;;
11034;SDS011;5571;48.110;-1.706;2023-07-08T01:10:37;7.78;;;3.97;;
11034;SDS011;5571;48.110;-1.706;2023-07-08T01:13:08;8.07;;;4.10;;
11034;SDS011;5571;48.110;-1.706;2023-07-08T01:15:40;6.03;;;4.03;;
11034;SDS011;5571;48.110;-1.706;2023-07-08T01:18:08;9.90;;;4.43;;
11034;SDS011;5571;48.110;-1.706;2023-07-08T01:20:36;6.45;;;4.22;;
11034;SDS011;5571;48.110;-1.706;2023-07-08T01:23:02;8.23;;;4.30;;
11034;SDS011;5571;48.110;-1.706;2023-07-08T01:25:30;7.53;;;3.90;;
11034;SDS011;5571;48.110;-1.706;2023-07-08T01:27:56;6.10;;;4.28;;
11034;SDS011;5571;48.110;-1.706;2023-07-08T01:30:23;8.50;;;4.03;;
11034;SDS011;5571;48.110;-1.706;2023-07-08T01:32:49;9.98;;;4.10;;
11034;SDS011;5571;48.110;-1.706;2023-07-08T01:35:19;4.82;;;3.65;;
11034;SDS011;5571;48.110;-1.706;2023-07-08T01:37:50;8.02;;;3.90;;
11034;SDS011;5571;48.110;-1.706;2023-07-08T01:42:45;7.45;;;3.90;;
11034;SDS011;5571;48.110;-1.706;2023-07-08T01:45:11;8.18;;;3.80;;
11034;SDS011;5571;48.110;-1.706;2023-07-08T01:47:38;3.88;;;3.53;;
11034;SDS011;5571;48.110;-1.706;2023-07-08T01:50:05;13.75;;;4.00;;
11034;SDS011;5571;48.110;-1.706;2023-07-08T01:52:31;7.47;;;4.03;;
11034;SDS011;5571;48.110;-1.706;2023-07-08T01:54:57;5.72;;;3.58;;
11034;SDS011;5571;48.110;-1.706;2023-07-08T01:57:22;7.53;;;3.50;;
11034;SDS011;5571;48.110;-1.706;2023-07-08T01:59:48;4.82;;;3.95;;
11034;SDS011;5571;48.110;-1.706;2023-07-08T02:02:15;9.00;;;3.67;;
11034;SDS011;5571;48.110;-1.706;2023-07-08T02:04:40;7.68;;;4.10;;
11034;SDS011;5571;48.110;-1.706;2023-07-08T02:07:06;9.52;;;3.83;;
11034;SDS011;5571;48.110;-1.706;2023-07-08T02:09:32;13.05;;;4.43;;
11034;SDS011;5571;48.110;-1.706;2023-07-08T02:11:57;6.57;;;3.90;;
11034;SDS011;5571;48.110;-1.706;2023-07-08T02:14:23;7.57;;;4.03;;
11034;SDS011;5571;48.110;-1.706;2023-07-08T02:16:48;7.40;;;3.78;;
11034;SDS011;5571;48.110;-1.706;2023-07-08T02:19:14;13.02;;;4.35;;
11034;SDS011;5571;48.110;-1.706;2023-07-08T02:21:40;7.80;;;3.80;;
11034;SDS011;5571;48.110;-1.706;2023-07-08T02:24:05;9.60;;;3.95;;
11034;SDS011;5571;48.110;-1.706;2023-07-08T02:26:32;6.85;;;4.60;;
11034;SDS011;5571;48.110;-1.706;2023-07-08T02:28:58;6.05;;;4.15;;
11034;SDS011;5571;48.110;-1.706;2023-07-08T02:31:24;7.45;;;4.10;;
11034;SDS011;5571;48.110;-1.706;2023-07-08T02:33:51;7.38;;;4.30;;
11034;SDS011;5571;48.110;-1.706;2023-07-08T02:36:17;6.70;;;4.18;;
11034;SDS011;5571;48.110;-1.706;2023-07-08T02:38:43;7.32;;;4.38;;
11034;SDS011;5571;48.110;-1.706;2023-07-08T02:41:08;6.15;;;3.97;;
11034;SDS011;5571;48.110;-1.706;2023-07-08T02:43:34;5.75;;;4.13;;
11034;SDS011;5571;48.110;-1.706;2023-07-08T02:45:59;5.20;;;4.20;;
11034;SDS011;5571;48.110;-1.706;2023-07-08T02:48:25;6.05;;;3.60;;
11034;SDS011;5571;48.110;-1.706;2023-07-08T02:50:51;6.72;;;4.50;;
11034;SDS011;5571;48.110;-1.706;2023-07-08T02:53:22;9.65;;;6.75;;
11034;SDS011;5571;48.110;-1.706;2023-07-08T02:55:48;9.85;;;5.38;;
11034;SDS011;5571;48.110;-1.706;2023-07-08T02:58:14;7.45;;;4.57;;
11034;SDS011;5571;48.110;-1.706;2023-07-08T03:00:39;6.05;;;4.70;;
11034;SDS011;5571;48.110;-1.706;2023-07-08T03:03:05;7.88;;;5.65;;
11034;SDS011;5571;48.110;-1.706;2023-07-08T03:05:30;8.48;;;5.65;;
11034;SDS011;5571;48.110;-1.706;2023-07-08T03:07:56;11.63;;;8.00;;
11034;SDS011;5571;48.110;-1.706;2023-07-08T03:10:22;9.65;;;5.93;;
11034;SDS011;5571;48.110;-1.706;2023-07-08T03:12:47;9.20;;;4.57;;
11034;SDS011;5571;48.110;-1.706;2023-07-08T03:15:13;10.60;;;4.65;;
11034;SDS011;5571;48.110;-1.706;2023-07-08T03:17:38;7.85;;;4.85;;
11034;SDS011;5571;48.110;-1.706;2023-07-08T03:20:06;7.68;;;4.32;;
11034;SDS011;5571;48.110;-1.706;2023-07-08T03:22:32;6.90;;;4.18;;
11034;SDS011;5571;48.110;-1.706;2023-07-08T03:24:57;7.22;;;4.65;;
11034;SDS011;5571;48.110;-1.706;2023-07-08T03:27:23;8.45;;;4.32;;
11034;SDS011;5571;48.110;-1.706;2023-07-08T03:29:49;5.55;;;4.40;;
11034;SDS011;5571;48.110;-1.706;2023-07-08T03:32:14;9.65;;;4.20;;
11034;SDS011;5571;48.110;-1.706;2023-07-08T03:34:40;7.90;;;3.97;;
11034;SDS011;5571;48.110;-1.706;2023-07-08T03:37:06;7.18;;;3.72;;
11034;SDS011;5571;48.110;-1.706;2023-07-08T03:39:33;5.10;;;4.22;;
11034;SDS011;5571;48.110;-1.706;2023-07-08T03:41:59;7.65;;;4.65;;
11034;SDS011;5571;48.110;-1.706;2023-07-08T03:44:25;8.07;;;4.28;;
11034;SDS011;5571;48.110;-1.706;2023-07-08T03:46:50;6.63;;;4.70;;
11034;SDS011;5571;48.110;-1.706;2023-07-08T03:49:17;8.35;;;4.95;;
11034;SDS011;5571;48.110;-1.706;2023-07-08T03:51:51;10.57;;;4.88;;
11034;SDS011;5571;48.110;-1.706;2023-07-08T03:54:21;8.98;;;5.85;;
11034;SDS011;5571;48.110;-1.706;2023-07-08T03:56:49;12.98;;;5.28;;
11034;SDS011;5571;48.110;-1.706;2023-07-08T03:59:15;11.13;;;6.18;;
11034;SDS011;5571;48.110;-1.706;2023-07-08T04:01:40;6.03;;;4.55;;
11034;SDS011;5571;48.110;-1.706;2023-07-08T04:04:06;6.97;;;4.82;;
11034;SDS011;5571;48.110;-1.706;2023-07-08T04:06:36;6.35;;;5.03;;
11034;SDS011;5571;48.110;-1.706;2023-07-08T04:09:02;20.15;;;13.73;;
11034;SDS011;5571;48.110;-1.706;2023-07-08T04:11:27;6.45;;;4.53;;
11034;SDS011;5571;48.110;-1.706;2023-07-08T04:13:53;7.35;;;4.40;;
11034;SDS011;5571;48.110;-1.706;2023-07-08T04:16:20;10.15;;;6.43;;
11034;SDS011;5571;48.110;-1.706;2023-07-08T04:18:47;19.95;;;13.32;;
11034;SDS011;5571;48.110;-1.706;2023-07-08T04:21:15;12.57;;;7.80;;
11034;SDS011;5571;48.110;-1.706;2023-07-08T04:23:41;7.80;;;5.45;;
11034;SDS011;5571;48.110;-1.706;2023-07-08T04:26:07;10.23;;;5.20;;
11034;SDS011;5571;48.110;-1.706;2023-07-08T04:28:33;7.15;;;4.45;;
11034;SDS011;5571;48.110;-1.706;2023-07-08T04:30:59;4.95;;;4.45;;
11034;SDS011;5571;48.110;-1.706;2023-07-08T04:33:24;6.45;;;4.50;;
11034;SDS011;5571;48.110;-1.706;2023-07-08T04:35:51;5.85;;;4.70;;
11034;SDS011;5571;48.110;-1.706;2023-07-08T04:38:21;13.93;;;4.88;;
11034;SDS011;5571;48.110;-1.706;2023-07-08T04:40:48;6.65;;;5.18;;
11034;SDS011;5571;48.110;-1.706;2023-07-08T04:43:16;7.10;;;5.00;;
11034;SDS011;5571;48.110;-1.706;2023-07-08T04:45:43;9.93;;;5.10;;
11034;SDS011;5571;48.110;-1.706;2023-07-08T04:48:13;7.85;;;5.45;;
11034;SDS011;5571;48.110;-1.706;2023-07-08T04:50:43;7.03;;;5.07;;
11034;SDS011;5571;48.110;-1.706;2023-07-08T04:53:10;5.60;;;4.80;;
11034;SDS011;5571;48.110;-1.706;2023-07-08T04:55:36;6.90;;;4.63;;
11034;SDS011;5571;48.110;-1.706;2023-07-08T04:58:06;8.93;;;5.25;;
11034;SDS011;5571;48.110;-1.706;2023-07-08T05:00:32;8.82;;;5.35;;
11034;SDS011;5571;48.110;-1.706;2023-07-08T05:02:57;7.65;;;4.45;;
11034;SDS011;5571;48.110;-1.706;2023-07-08T05:05:23;5.35;;;4.65;;
11034;SDS011;5571;48.110;-1.706;2023-07-08T05:07:49;7.45;;;4.80;;
11034;SDS011;5571;48.110;-1.706;2023-07-08T05:10:14;7.28;;;4.88;;
11034;SDS011;5571;48.110;-1.706;2023-07-08T05:12:40;6.80;;;4.50;;
11034;SDS011;5571;48.110;-1.706;2023-07-08T05:15:07;7.15;;;4.80;;
11034;SDS011;5571;48.110;-1.706;2023-07-08T05:17:33;11.00;;;4.95;;
11034;SDS011;5571;48.110;-1.706;2023-07-08T05:19:59;7.40;;;4.70;;
11034;SDS011;5571;48.110;-1.706;2023-07-08T05:22:26;6.68;;;4.50;;
11034;SDS011;5571;48.110;-1.706;2023-07-08T05:24:52;6.55;;;4.70;;
11034;SDS011;5571;48.110;-1.706;2023-07-08T05:27:21;6.10;;;4.25;;
11034;SDS011;5571;48.110;-1.706;2023-07-08T05:29:48;8.07;;;4.03;;
11034;SDS011;5571;48.110;-1.706;2023-07-08T05:32:14;6.72;;;4.20;;
11034;SDS011;5571;48.110;-1.706;2023-07-08T05:34:40;9.57;;;4.38;;
11034;SDS011;5571;48.110;-1.706;2023-07-08T05:37:06;5.85;;;4.38;;
11034;SDS011;5571;48.110;-1.706;2023-07-08T05:39:31;9.25;;;4.60;;
11034;SDS011;5571;48.110;-1.706;2023-07-08T05:41:57;6.57;;;4.40;;
11034;SDS011;5571;48.110;-1.706;2023-07-08T05:44:23;7.10;;;4.30;;
11034;SDS011;5571;48.110;-1.706;2023-07-08T05:46:49;7.32;;;4.18;;
11034;SDS011;5571;48.110;-1.706;2023-07-08T05:49:15;6.22;;;4.13;;
11034;SDS011;5571;48.110;-1.706;2023-07-08T05:51:42;6.00;;;3.90;;
11034;SDS011;5571;48.110;-1.706;2023-07-08T05:54:12;5.68;;;4.20;;
11034;SDS011;5571;48.110;-1.706;2023-07-08T05:56:38;4.45;;;3.78;;
11034;SDS011;5571;48.110;-1.706;2023-07-08T05:59:04;7.00;;;3.85;;
11034;SDS011;5571;48.110;-1.706;2023-07-08T06:01:30;5.28;;;3.70;;
11034;SDS011;5571;48.110;-1.706;2023-07-08T06:03:56;6.05;;;3.78;;
11034;SDS011;5571;48.110;-1.706;2023-07-08T06:06:24;4.13;;;3.67;;
11034;SDS011;5571;48.110;-1.706;2023-07-08T06:08:51;4.80;;;3.70;;
11034;SDS011;5571;48.110;-1.706;2023-07-08T06:11:17;6.55;;;3.75;;
11034;SDS011;5571;48.110;-1.706;2023-07-08T06:13:43;5.28;;;3.95;;
11034;SDS011;5571;48.110;-1.706;2023-07-08T06:16:08;5.95;;;3.92;;
11034;SDS011;5571;48.110;-1.706;2023-07-08T06:18:34;4.55;;;3.83;;
11034;SDS011;5571;48.110;-1.706;2023-07-08T06:21:00;4.97;;;3.55;;
11034;SDS011;5571;48.110;-1.706;2023-07-08T06:23:26;6.70;;;3.78;;
11034;SDS011;5571;48.110;-1.706;2023-07-08T06:25:52;6.63;;;3.95;;
11034;SDS011;5571;48.110;-1.706;2023-07-08T06:28:18;4.78;;;3.70;;
11034;SDS011;5571;48.110;-1.706;2023-07-08T06:30:45;6.95;;;3.58;;
11034;SDS011;5571;48.110;-1.706;2023-07-08T06:33:11;6.03;;;3.15;;
11034;SDS011;5571;48.110;-1.706;2023-07-08T06:35:37;6.47;;;3.60;;
11034;SDS011;5571;48.110;-1.706;2023-07-08T06:38:03;7.43;;;4.38;;
11034;SDS011;5571;48.110;-1.706;2023-07-08T06:40:30;6.10;;;4.40;;
11034;SDS011;5571;48.110;-1.706;2023-07-08T06:42:56;4.97;;;3.70;;
11034;SDS011;5571;48.110;-1.706;2023-07-08T06:45:22;7.28;;;4.15;;
11034;SDS011;5571;48.110;-1.706;2023-07-08T06:47:47;5.43;;;4.32;;
11034;SDS011;5571;48.110;-1.706;2023-07-08T06:50:13;8.45;;;4.78;;
11034;SDS011;5571;48.110;-1.706;2023-07-08T06:52:39;4.35;;;3.78;;
11034;SDS011;5571;48.110;-1.706;2023-07-08T06:55:06;4.95;;;3.92;;
11034;SDS011;5571;48.110;-1.706;2023-07-08T06:57:33;6.00;;;3.88;;
11034;SDS011;5571;48.110;-1.706;2023-07-08T06:59:59;6.78;;;4.07;;
11034;SDS011;5571;48.110;-1.706;2023-07-08T07:02:25;5.28;;;4.07;;
11034;SDS011;5571;48.110;-1.706;2023-07-08T07:04:51;5.57;;;4.28;;
11034;SDS011;5571;48.110;-1.706;2023-07-08T07:07:17;8.68;;;4.20;;
11034;SDS011;5571;48.110;-1.706;2023-07-08T07:09:43;5.85;;;4.15;;
11034;SDS011;5571;48.110;-1.706;2023-07-08T07:12:09;7.68;;;4.32;;
11034;SDS011;5571;48.110;-1.706;2023-07-08T07:14:34;7.05;;;4.32;;
11034;SDS011;5571;48.110;-1.706;2023-07-08T07:17:00;4.65;;;4.25;;
11034;SDS011;5571;48.110;-1.706;2023-07-08T07:19:26;8.13;;;4.45;;
11034;SDS011;5571;48.110;-1.706;2023-07-08T07:21:51;7.43;;;4.35;;
11034;SDS011;5571;48.110;-1.706;2023-07-08T07:24:17;7.07;;;4.57;;
11034;SDS011;5571;48.110;-1.706;2023-07-08T07:26:43;6.85;;;4.20;;
11034;SDS011;5571;48.110;-1.706;2023-07-08T07:29:09;8.35;;;4.45;;
11034;SDS011;5571;48.110;-1.706;2023-07-08T07:31:35;9.43;;;4.38;;
11034;SDS011;5571;48.110;-1.706;2023-07-08T07:34:00;8.52;;;4.40;;
11034;SDS011;5571;48.110;-1.706;2023-07-08T07:36:27;6.20;;;3.70;;
11034;SDS011;5571;48.110;-1.706;2023-07-08T07:38:53;5.68;;;4.10;;
11034;SDS011;5571;48.110;-1.706;2023-07-08T07:41:20;6.50;;;4.78;;
11034;SDS011;5571;48.110;-1.706;2023-07-08T07:43:46;6.25;;;4.13;;
11034;SDS011;5571;48.110;-1.706;2023-07-08T07:46:12;10.65;;;4.38;;
11034;SDS011;5571;48.110;-1.706;2023-07-08T07:48:37;6.10;;;4.60;;
11034;SDS011;5571;48.110;-1.706;2023-07-08T07:51:04;6.10;;;4.47;;
11034;SDS011;5571;48.110;-1.706;2023-07-08T07:53:30;6.25;;;4.32;;
11034;SDS011;5571;48.110;-1.706;2023-07-08T07:55:59;6.93;;;4.57;;
11034;SDS011;5571;48.110;-1.706;2023-07-08T07:58:26;5.22;;;4.70;;
11034;SDS011;5571;48.110;-1.706;2023-07-08T08:00:52;6.38;;;4.50;;
11034;SDS011;5571;48.110;-1.706;2023-07-08T08:03:17;6.30;;;4.78;;
11034;SDS011;5571;48.110;-1.706;2023-07-08T08:05:43;5.80;;;4.75;;
11034;SDS011;5571;48.110;-1.706;2023-07-08T08:08:09;6.65;;;4.22;;
11034;SDS011;5571;48.110;-1.706;2023-07-08T08:10:35;8.85;;;4.00;;
11034;SDS011;5571;48.110;-1.706;2023-07-08T08:13:01;6.35;;;4.13;;
11034;SDS011;5571;48.110;-1.706;2023-07-08T08:15:27;5.03;;;4.53;;
11034;SDS011;5571;48.110;-1.706;2023-07-08T08:17:53;5.85;;;4.07;;
11034;SDS011;5571;48.110;-1.706;2023-07-08T08:20:19;5.78;;;4.00;;
11034;SDS011;5571;48.110;-1.706;2023-07-08T08:22:46;5.38;;;3.85;;
11034;SDS011;5571;48.110;-1.706;2023-07-08T08:25:13;5.97;;;4.10;;
11034;SDS011;5571;48.110;-1.706;2023-07-08T08:27:40;6.78;;;3.85;;
11034;SDS011;5571;48.110;-1.706;2023-07-08T08:30:06;8.02;;;3.95;;
11034;SDS011;5571;48.110;-1.706;2023-07-08T08:32:32;4.47;;;3.65;;
11034;SDS011;5571;48.110;-1.706;2023-07-08T08:34:58;4.35;;;3.45;;
11034;SDS011;5571;48.110;-1.706;2023-07-08T08:37:23;7.25;;;3.10;;
11034;SDS011;5571;48.110;-1.706;2023-07-08T08:39:49;5.25;;;3.60;;
11034;SDS011;5571;48.110;-1.706;2023-07-08T08:42:25;4.22;;;3.22;;
11034;SDS011;5571;48.110;-1.706;2023-07-08T08:44:55;4.35;;;3.08;;
11034;SDS011;5571;48.110;-1.706;2023-07-08T08:49:57;5.18;;;3.20;;
11034;SDS011;5571;48.110;-1.706;2023-07-08T08:52:28;4.38;;;3.55;;
11034;SDS011;5571;48.110;-1.706;2023-07-08T08:54:54;10.85;;;5.18;;
11034;SDS011;5571;48.110;-1.706;2023-07-08T09:00:07;7.47;;;4.80;;
11034;SDS011;5571;48.110;-1.706;2023-07-08T09:02:42;4.68;;;4.00;;
11034;SDS011;5571;48.110;-1.706;2023-07-08T09:05:24;5.07;;;3.38;;
11034;SDS011;5571;48.110;-1.706;2023-07-08T09:13:28;8.60;;;3.60;;
11034;SDS011;5571;48.110;-1.706;2023-07-08T09:16:05;4.68;;;3.10;;
11034;SDS011;5571;48.110;-1.706;2023-07-08T09:27:07;8.27;;;4.18;;
11034;SDS011;5571;48.110;-1.706;2023-07-08T09:29:33;7.13;;;3.75;;
11034;SDS011;5571;48.110;-1.706;2023-07-08T09:32:00;3.88;;;2.70;;
11034;SDS011;5571;48.110;-1.706;2023-07-08T09:34:45;5.72;;;3.58;;
11034;SDS011;5571;48.110;-1.706;2023-07-08T09:37:34;3.63;;;3.08;;
11034;SDS011;5571;48.110;-1.706;2023-07-08T09:42:48;3.63;;;2.75;;
11034;SDS011;5571;48.110;-1.706;2023-07-08T09:45:20;5.05;;;2.80;;
11034;SDS011;5571;48.110;-1.706;2023-07-08T09:47:51;5.35;;;3.33;;
11034;SDS011;5571;48.110;-1.706;2023-07-08T09:50:20;4.18;;;2.45;;
11034;SDS011;5571;48.110;-1.706;2023-07-08T09:52:53;4.82;;;2.65;;
11034;SDS011;5571;48.110;-1.706;2023-07-08T09:55:22;4.35;;;2.65;;
11034;SDS011;5571;48.110;-1.706;2023-07-08T09:57:49;3.55;;;2.95;;
11034;SDS011;5571;48.110;-1.706;2023-07-08T10:00:18;2.58;;;2.20;;
11034;SDS011;5571;48.110;-1.706;2023-07-08T10:02:55;2.83;;;2.40;;
11034;SDS011;5571;48.110;-1.706;2023-07-08T10:05:23;2.55;;;2.30;;
11034;SDS011;5571;48.110;-1.706;2023-07-08T10:07:58;4.75;;;3.03;;
11034;SDS011;5571;48.110;-1.706;2023-07-08T10:10:34;3.97;;;3.10;;
11034;SDS011;5571;48.110;-1.706;2023-07-08T10:13:15;6.60;;;2.38;;
11034;SDS011;5571;48.110;-1.706;2023-07-08T10:15:44;2.03;;;1.90;;
11034;SDS011;5571;48.110;-1.706;2023-07-08T10:18:14;2.75;;;2.03;;
11034;SDS011;5571;48.110;-1.706;2023-07-08T10:26:10;4.22;;;3.40;;
11034;SDS011;5571;48.110;-1.706;2023-07-08T10:29:04;3.83;;;2.80;;
11034;SDS011;5571;48.110;-1.706;2023-07-08T10:32:00;4.50;;;3.30;;
11034;SDS011;5571;48.110;-1.706;2023-07-08T10:37:28;4.43;;;3.10;;
11034;SDS011;5571;48.110;-1.706;2023-07-08T10:43:43;5.30;;;2.58;;
11034;SDS011;5571;48.110;-1.706;2023-07-08T11:04:49;7.50;;;2.65;;
11034;SDS011;5571;48.110;-1.706;2023-07-08T11:07:32;3.95;;;2.30;;
11034;SDS011;5571;48.110;-1.706;2023-07-08T11:10:09;3.53;;;2.20;;
11034;SDS011;5571;48.110;-1.706;2023-07-08T11:12:48;4.90;;;2.30;;
11034;SDS011;5571;48.110;-1.706;2023-07-08T11:15:21;3.70;;;2.30;;
11034;SDS011;5571;48.110;-1.706;2023-07-08T11:23:03;4.82;;;2.35;;
11034;SDS011;5571;48.110;-1.706;2023-07-08T11:25:54;3.38;;;2.80;;
11034;SDS011;5571;48.110;-1.706;2023-07-08T11:28:30;2.50;;;2.30;;
11034;SDS011;5571;48.110;-1.706;2023-07-08T11:30:55;2.80;;;2.22;;
11034;SDS011;5571;48.110;-1.706;2023-07-08T11:33:25;4.05;;;2.50;;
11034;SDS011;5571;48.110;-1.706;2023-07-08T11:35:52;2.92;;;2.22;;
11034;SDS011;5571;48.110;-1.706;2023-07-08T11:38:23;4.72;;;2.53;;
11034;SDS011;5571;48.110;-1.706;2023-07-08T11:40:50;3.17;;;2.38;;
11034;SDS011;5571;48.110;-1.706;2023-07-08T11:43:25;2.28;;;2.08;;
11034;SDS011;5571;48.110;-1.706;2023-07-08T11:45:54;3.00;;;1.95;;
11034;SDS011;5571;48.110;-1.706;2023-07-08T11:48:27;2.95;;;2.10;;
11034;SDS011;5571;48.110;-1.706;2023-07-08T11:50:55;2.40;;;2.20;;
11034;SDS011;5571;48.110;-1.706;2023-07-08T11:55:58;2.38;;;2.17;;
11034;SDS011;5571;48.110;-1.706;2023-07-08T12:01:30;3.00;;;2.35;;
11034;SDS011;5571;48.110;-1.706;2023-07-08T12:09:00;2.92;;;2.30;;
11034;SDS011;5571;48.110;-1.706;2023-07-08T12:11:40;3.25;;;2.10;;
11034;SDS011;5571;48.110;-1.706;2023-07-08T12:14:09;3.40;;;2.50;;
11034;SDS011;5571;48.110;-1.706;2023-07-08T12:16:35;4.30;;;2.28;;
11034;SDS011;5571;48.110;-1.706;2023-07-08T12:19:01;3.70;;;2.35;;
11034;SDS011;5571;48.110;-1.706;2023-07-08T12:21:34;3.38;;;2.08;;
11034;SDS011;5571;48.110;-1.706;2023-07-08T12:24:04;2.10;;;1.90;;
11034;SDS011;5571;48.110;-1.706;2023-07-08T12:26:31;2.90;;;1.85;;
11034;SDS011;5571;48.110;-1.706;2023-07-08T12:28:58;4.05;;;2.10;;
11034;SDS011;5571;48.110;-1.706;2023-07-08T12:31:23;4.07;;;1.60;;
11034;SDS011;5571;48.110;-1.706;2023-07-08T12:33:50;1.95;;;1.77;;
11034;SDS011;5571;48.110;-1.706;2023-07-08T12:36:19;1.52;;;1.42;;
11034;SDS011;5571;48.110;-1.706;2023-07-08T12:38:50;2.15;;;1.85;;
11034;SDS011;5571;48.110;-1.706;2023-07-08T12:41:18;2.45;;;1.52;;
11034;SDS011;5571;48.110;-1.706;2023-07-08T12:43:48;2.05;;;1.85;;
11034;SDS011;5571;48.110;-1.706;2023-07-08T12:46:16;2.30;;;1.92;;
11034;SDS011;5571;48.110;-1.706;2023-07-08T12:48:43;2.90;;;1.85;;
11034;SDS011;5571;48.110;-1.706;2023-07-08T12:51:13;2.25;;;1.90;;
11034;SDS011;5571;48.110;-1.706;2023-07-08T12:53:42;2.08;;;1.88;;
11034;SDS011;5571;48.110;-1.706;2023-07-08T12:56:10;3.33;;;2.00;;
11034;SDS011;5571;48.110;-1.706;2023-07-08T12:58:38;3.47;;;1.70;;
11034;SDS011;5571;48.110;-1.706;2023-07-08T13:01:11;4.32;;;1.88;;
11034;SDS011;5571;48.110;-1.706;2023-07-08T13:03:43;1.60;;;1.50;;
11034;SDS011;5571;48.110;-1.706;2023-07-08T13:06:12;2.25;;;1.65;;
11034;SDS011;5571;48.110;-1.706;2023-07-08T13:08:41;1.95;;;1.85;;
11034;SDS011;5571;48.110;-1.706;2023-07-08T13:11:08;2.00;;;1.70;;
11034;SDS011;5571;48.110;-1.706;2023-07-08T13:13:34;2.75;;;1.80;;
11034;SDS011;5571;48.110;-1.706;2023-07-08T13:16:03;5.88;;;1.83;;
11034;SDS011;5571;48.110;-1.706;2023-07-08T13:18:36;2.05;;;1.77;;
11034;SDS011;5571;48.110;-1.706;2023-07-08T13:21:04;3.97;;;1.90;;
11034;SDS011;5571;48.110;-1.706;2023-07-08T13:23:32;2.17;;;1.98;;
11034;SDS011;5571;48.110;-1.706;2023-07-08T13:25:59;6.22;;;2.08;;
11034;SDS011;5571;48.110;-1.706;2023-07-08T13:28:26;3.58;;;1.80;;
11034;SDS011;5571;48.110;-1.706;2023-07-08T13:30:57;2.38;;;1.70;;
11034;SDS011;5571;48.110;-1.706;2023-07-08T13:33:29;5.25;;;2.17;;
11034;SDS011;5571;48.110;-1.706;2023-07-08T13:36:01;2.10;;;1.90;;
11034;SDS011;5571;48.110;-1.706;2023-07-08T13:38:32;3.00;;;1.83;;
11034;SDS011;5571;48.110;-1.706;2023-07-08T13:41:03;7.47;;;1.98;;
11034;SDS011;5571;48.110;-1.706;2023-07-08T13:43:32;2.70;;;1.92;;
11034;SDS011;5571;48.110;-1.706;2023-07-08T13:46:02;4.60;;;2.10;;
11034;SDS011;5571;48.110;-1.706;2023-07-08T13:48:42;3.03;;;1.85;;
11034;SDS011;5571;48.110;-1.706;2023-07-08T13:56:17;4.43;;;1.90;;
11034;SDS011;5571;48.110;-1.706;2023-07-08T13:58:44;3.15;;;1.90;;
11034;SDS011;5571;48.110;-1.706;2023-07-08T14:01:32;4.85;;;2.30;;
11034;SDS011;5571;48.110;-1.706;2023-07-08T14:03:57;4.68;;;2.38;;
11034;SDS011;5571;48.110;-1.706;2023-07-08T14:06:28;4.75;;;2.28;;
11034;SDS011;5571;48.110;-1.706;2023-07-08T14:09:12;3.10;;;2.10;;
11034;SDS011;5571;48.110;-1.706;2023-07-08T14:11:40;2.67;;;2.13;;
11034;SDS011;5571;48.110;-1.706;2023-07-08T14:14:07;2.80;;;2.38;;
11034;SDS011;5571;48.110;-1.706;2023-07-08T14:16:34;4.57;;;2.30;;
11034;SDS011;5571;48.110;-1.706;2023-07-08T14:19:03;4.05;;;2.30;;
11034;SDS011;5571;48.110;-1.706;2023-07-08T14:21:31;3.63;;;2.40;;
11034;SDS011;5571;48.110;-1.706;2023-07-08T14:23:58;4.00;;;2.33;;
11034;SDS011;5571;48.110;-1.706;2023-07-08T14:26:24;2.95;;;2.30;;
11034;SDS011;5571;48.110;-1.706;2023-07-08T14:28:49;2.88;;;2.40;;
11034;SDS011;5571;48.110;-1.706;2023-07-08T14:31:20;3.95;;;2.30;;
11034;SDS011;5571;48.110;-1.706;2023-07-08T14:33:49;3.00;;;2.33;;
11034;SDS011;5571;48.110;-1.706;2023-07-08T14:36:17;2.95;;;2.35;;
11034;SDS011;5571;48.110;-1.706;2023-07-08T14:38:43;4.70;;;2.33;;
11034;SDS011;5571;48.110;-1.706;2023-07-08T14:41:09;5.72;;;2.25;;
11034;SDS011;5571;48.110;-1.706;2023-07-08T14:43:34;2.50;;;2.30;;
11034;SDS011;5571;48.110;-1.706;2023-07-08T14:46:04;3.15;;;2.50;;
11034;SDS011;5571;48.110;-1.706;2023-07-08T14:48:31;2.65;;;2.20;;
11034;SDS011;5571;48.110;-1.706;2023-07-08T14:50:57;4.80;;;2.40;;
11034;SDS011;5571;48.110;-1.706;2023-07-08T14:53:23;2.47;;;2.22;;
11034;SDS011;5571;48.110;-1.706;2023-07-08T14:55:51;4.25;;;2.00;;
11034;SDS011;5571;48.110;-1.706;2023-07-08T14:58:23;3.88;;;2.40;;
11034;SDS011;5571;48.110;-1.706;2023-07-08T15:00:53;5.25;;;2.53;;
11034;SDS011;5571;48.110;-1.706;2023-07-08T15:03:21;3.20;;;2.13;;
11034;SDS011;5571;48.110;-1.706;2023-07-08T15:05:48;3.17;;;2.22;;
11034;SDS011;5571;48.110;-1.706;2023-07-08T15:08:13;4.68;;;2.50;;
11034;SDS011;5571;48.110;-1.706;2023-07-08T15:10:39;2.60;;;2.40;;
11034;SDS011;5571;48.110;-1.706;2023-07-08T15:13:17;7.35;;;2.28;;
11034;SDS011;5571;48.110;-1.706;2023-07-08T15:15:45;2.47;;;2.17;;
11034;SDS011;5571;48.110;-1.706;2023-07-08T15:18:13;6.75;;;2.08;;
11034;SDS011;5571;48.110;-1.706;2023-07-08T15:20:40;6.75;;;2.00;;
11034;SDS011;5571;48.110;-1.706;2023-07-08T15:23:07;2.53;;;2.10;;
11034;SDS011;5571;48.110;-1.706;2023-07-08T15:25:33;2.65;;;2.08;;
11034;SDS011;5571;48.110;-1.706;2023-07-08T15:27:59;3.75;;;2.20;;
11034;SDS011;5571;48.110;-1.706;2023-07-08T15:30:27;2.90;;;2.40;;
11034;SDS011;5571;48.110;-1.706;2023-07-08T15:32:54;6.65;;;2.20;;
11034;SDS011;5571;48.110;-1.706;2023-07-08T15:35:21;3.92;;;2.20;;
11034;SDS011;5571;48.110;-1.706;2023-07-08T15:37:55;6.82;;;2.20;;
11034;SDS011;5571;48.110;-1.706;2023-07-08T15:40:21;2.70;;;2.35;;
11034;SDS011;5571;48.110;-1.706;2023-07-08T15:42:49;2.90;;;2.33;;
11034;SDS011;5571;48.110;-1.706;2023-07-08T15:45:28;6.00;;;1.92;;
11034;SDS011;5571;48.110;-1.706;2023-07-08T15:47:57;4.78;;;2.30;;
11034;SDS011;5571;48.110;-1.706;2023-07-08T15:50:24;2.60;;;2.10;;
11034;SDS011;5571;48.110;-1.706;2023-07-08T15:52:51;4.47;;;2.70;;
11034;SDS011;5571;48.110;-1.706;2023-07-08T15:55:26;2.80;;;2.28;;
11034;SDS011;5571;48.110;-1.706;2023-07-08T15:57:54;5.25;;;2.38;;
11034;SDS011;5571;48.110;-1.706;2023-07-08T16:00:25;2.58;;;2.30;;
11034;SDS011;5571;48.110;-1.706;2023-07-08T16:02:55;3.80;;;2.38;;
11034;SDS011;5571;48.110;-1.706;2023-07-08T16:05:22;6.07;;;2.30;;
11034;SDS011;5571;48.110;-1.706;2023-07-08T16:07:49;3.45;;;2.42;;
11034;SDS011;5571;48.110;-1.706;2023-07-08T16:10:17;3.15;;;2.42;;
11034;SDS011;5571;48.110;-1.706;2023-07-08T16:12:43;4.03;;;2.28;;
11034;SDS011;5571;48.110;-1.706;2023-07-08T16:15:14;3.47;;;2.30;;